sensor_id;sensor_type;location;lat;lon;timestamp;temperature;humidity
6822;DHT22;3449;48.728;8.968;2023-04-08T00:02:22;6.80;99.90
6822;DHT22;3449;48.728;8.968;2023-04-08T00:04:48;6.80;99.90
6822;DHT22;3449;48.728;8.968;2023-04-08T00:07:17;6.80;99.90
6822;DHT22;3449;48.728;8.968;2023-04-08T00:09:43;6.70;99.90
6822;DHT22;3449;48.728;8.968;2023-04-08T00:12:10;6.70;99.90
6822;DHT22;3449;48.728;8.968;2023-04-08T00:14:37;6.70;99.90
6822;DHT22;3449;48.728;8.968;2023-04-08T00:17:06;6.70;99.90
6822;DHT22;3449;48.728;8.968;2023-04-08T00:19:33;6.70;99.90
6822;DHT22;3449;48.728;8.968;2023-04-08T00:21:59;6.70;99.90
6822;DHT22;3449;48.728;8.968;2023-04-08T00:24:28;6.70;99.90
6822;DHT22;3449;48.728;8.968;2023-04-08T00:26:55;6.70;99.90
6822;DHT22;3449;48.728;8.968;2023-04-08T00:29:22;6.70;99.90
6822;DHT22;3449;48.728;8.968;2023-04-08T00:31:48;6.80;99.90
6822;DHT22;3449;48.728;8.968;2023-04-08T00:34:15;6.80;99.90
6822;DHT22;3449;48.728;8.968;2023-04-08T00:36:43;6.70;99.90
6822;DHT22;3449;48.728;8.968;2023-04-08T00:39:10;6.70;99.90
6822;DHT22;3449;48.728;8.968;2023-04-08T00:41:38;6.70;99.90
6822;DHT22;3449;48.728;8.968;2023-04-08T00:44:05;6.70;99.90
6822;DHT22;3449;48.728;8.968;2023-04-08T00:46:36;6.60;99.90
6822;DHT22;3449;48.728;8.968;2023-04-08T00:49:04;6.60;99.90
6822;DHT22;3449;48.728;8.968;2023-04-08T00:51:32;6.60;99.90
6822;DHT22;3449;48.728;8.968;2023-04-08T00:54:01;6.60;99.90
6822;DHT22;3449;48.728;8.968;2023-04-08T00:56:29;6.60;99.90
6822;DHT22;3449;48.728;8.968;2023-04-08T00:58:59;6.60;99.90
6822;DHT22;3449;48.728;8.968;2023-04-08T01:01:33;6.60;99.90
6822;DHT22;3449;48.728;8.968;2023-04-08T01:04:05;6.60;99.90
6822;DHT22;3449;48.728;8.968;2023-04-08T01:06:39;6.60;99.90
6822;DHT22;3449;48.728;8.968;2023-04-08T01:09:08;6.60;99.90
6822;DHT22;3449;48.728;8.968;2023-04-08T01:11:39;6.50;99.90
6822;DHT22;3449;48.728;8.968;2023-04-08T01:14:10;6.50;99.90
6822;DHT22;3449;48.728;8.968;2023-04-08T01:16:39;6.50;99.90
6822;DHT22;3449;48.728;8.968;2023-04-08T01:19:07;6.50;99.90
6822;DHT22;3449;48.728;8.968;2023-04-08T01:21:37;6.50;99.90
6822;DHT22;3449;48.728;8.968;2023-04-08T01:24:10;6.50;99.90
6822;DHT22;3449;48.728;8.968;2023-04-08T01:26:41;6.50;99.90
6822;DHT22;3449;48.728;8.968;2023-04-08T01:29:10;6.50;99.90
6822;DHT22;3449;48.728;8.968;2023-04-08T01:31:39;6.50;99.90
6822;DHT22;3449;48.728;8.968;2023-04-08T01:34:08;6.50;99.90
6822;DHT22;3449;48.728;8.968;2023-04-08T01:36:37;6.40;99.90
6822;DHT22;3449;48.728;8.968;2023-04-08T01:39:05;6.50;99.90
6822;DHT22;3449;48.728;8.968;2023-04-08T01:41:35;6.40;99.90
6822;DHT22;3449;48.728;8.968;2023-04-08T01:44:04;6.40;99.90
6822;DHT22;3449;48.728;8.968;2023-04-08T01:46:32;6.40;99.90
6822;DHT22;3449;48.728;8.968;2023-04-08T01:48:59;6.40;99.90
6822;DHT22;3449;48.728;8.968;2023-04-08T01:51:27;6.40;99.90
6822;DHT22;3449;48.728;8.968;2023-04-08T01:53:56;6.40;99.90
6822;DHT22;3449;48.728;8.968;2023-04-08T01:56:27;6.40;99.90
6822;DHT22;3449;48.728;8.968;2023-04-08T01:58:56;6.40;99.90
6822;DHT22;3449;48.728;8.968;2023-04-08T02:01:26;6.40;99.90
6822;DHT22;3449;48.728;8.968;2023-04-08T02:03:55;6.40;99.90
6822;DHT22;3449;48.728;8.968;2023-04-08T02:06:25;6.30;99.90
6822;DHT22;3449;48.728;8.968;2023-04-08T02:08:53;6.30;99.90
6822;DHT22;3449;48.728;8.968;2023-04-08T02:11:20;6.30;99.90
6822;DHT22;3449;48.728;8.968;2023-04-08T02:13:47;6.30;99.90
6822;DHT22;3449;48.728;8.968;2023-04-08T02:16:17;6.20;99.90
6822;DHT22;3449;48.728;8.968;2023-04-08T02:18:53;6.20;99.90
6822;DHT22;3449;48.728;8.968;2023-04-08T02:21:26;6.20;99.90
6822;DHT22;3449;48.728;8.968;2023-04-08T02:23:58;6.20;99.90
6822;DHT22;3449;48.728;8.968;2023-04-08T02:26:26;6.10;99.90
6822;DHT22;3449;48.728;8.968;2023-04-08T02:28:54;6.10;99.90
6822;DHT22;3449;48.728;8.968;2023-04-08T02:31:22;6.10;99.90
6822;DHT22;3449;48.728;8.968;2023-04-08T02:33:52;6.10;99.90
6822;DHT22;3449;48.728;8.968;2023-04-08T02:36:20;6.00;99.90
6822;DHT22;3449;48.728;8.968;2023-04-08T02:38:48;6.00;99.90
6822;DHT22;3449;48.728;8.968;2023-04-08T02:41:15;6.00;99.90
6822;DHT22;3449;48.728;8.968;2023-04-08T02:43:42;6.00;99.90
6822;DHT22;3449;48.728;8.968;2023-04-08T02:46:10;6.00;99.90
6822;DHT22;3449;48.728;8.968;2023-04-08T02:48:37;5.90;99.90
6822;DHT22;3449;48.728;8.968;2023-04-08T02:51:05;5.90;99.90
6822;DHT22;3449;48.728;8.968;2023-04-08T02:53:32;5.90;99.90
6822;DHT22;3449;48.728;8.968;2023-04-08T02:55:59;5.90;99.90
6822;DHT22;3449;48.728;8.968;2023-04-08T02:58:26;5.90;99.90
6822;DHT22;3449;48.728;8.968;2023-04-08T03:00:53;5.90;99.90
6822;DHT22;3449;48.728;8.968;2023-04-08T03:03:20;5.80;99.90
6822;DHT22;3449;48.728;8.968;2023-04-08T03:05:52;5.80;99.90
6822;DHT22;3449;48.728;8.968;2023-04-08T03:08:20;5.80;99.90
6822;DHT22;3449;48.728;8.968;2023-04-08T03:10:47;5.80;99.90
6822;DHT22;3449;48.728;8.968;2023-04-08T03:13:15;5.90;99.90
6822;DHT22;3449;48.728;8.968;2023-04-08T03:15:42;5.90;99.90
6822;DHT22;3449;48.728;8.968;2023-04-08T03:18:09;5.90;99.90
6822;DHT22;3449;48.728;8.968;2023-04-08T03:20:36;5.90;99.90
6822;DHT22;3449;48.728;8.968;2023-04-08T03:23:03;5.90;99.90
6822;DHT22;3449;48.728;8.968;2023-04-08T03:25:31;5.90;99.90
6822;DHT22;3449;48.728;8.968;2023-04-08T03:27:58;5.90;99.90
6822;DHT22;3449;48.728;8.968;2023-04-08T03:30:25;5.90;99.90
6822;DHT22;3449;48.728;8.968;2023-04-08T03:32:52;5.90;99.90
6822;DHT22;3449;48.728;8.968;2023-04-08T03:35:19;5.90;99.90
6822;DHT22;3449;48.728;8.968;2023-04-08T03:37:46;5.90;99.90
6822;DHT22;3449;48.728;8.968;2023-04-08T03:40:13;6.00;99.90
6822;DHT22;3449;48.728;8.968;2023-04-08T03:42:41;5.90;99.90
6822;DHT22;3449;48.728;8.968;2023-04-08T03:45:08;6.00;99.90
6822;DHT22;3449;48.728;8.968;2023-04-08T03:47:35;5.90;99.90
6822;DHT22;3449;48.728;8.968;2023-04-08T03:50:02;6.00;99.90
6822;DHT22;3449;48.728;8.968;2023-04-08T03:52:29;5.90;99.90
6822;DHT22;3449;48.728;8.968;2023-04-08T03:54:56;5.90;99.90
6822;DHT22;3449;48.728;8.968;2023-04-08T03:57:23;6.00;99.90
6822;DHT22;3449;48.728;8.968;2023-04-08T03:59:51;6.00;99.90
6822;DHT22;3449;48.728;8.968;2023-04-08T04:02:18;6.00;99.90
6822;DHT22;3449;48.728;8.968;2023-04-08T04:04:45;6.00;99.90
6822;DHT22;3449;48.728;8.968;2023-04-08T04:07:12;5.90;99.90
6822;DHT22;3449;48.728;8.968;2023-04-08T04:09:39;5.90;99.90
6822;DHT22;3449;48.728;8.968;2023-04-08T04:12:05;5.90;99.90
6822;DHT22;3449;48.728;8.968;2023-04-08T04:14:32;5.90;99.90
6822;DHT22;3449;48.728;8.968;2023-04-08T04:17:01;5.90;99.90
6822;DHT22;3449;48.728;8.968;2023-04-08T04:19:29;5.90;99.90
6822;DHT22;3449;48.728;8.968;2023-04-08T04:21:56;5.90;99.90
6822;DHT22;3449;48.728;8.968;2023-04-08T04:24:23;5.90;99.90
6822;DHT22;3449;48.728;8.968;2023-04-08T04:26:50;5.90;99.90
6822;DHT22;3449;48.728;8.968;2023-04-08T04:29:17;5.90;99.90
6822;DHT22;3449;48.728;8.968;2023-04-08T04:31:44;5.90;99.90
6822;DHT22;3449;48.728;8.968;2023-04-08T04:34:12;5.90;99.90
6822;DHT22;3449;48.728;8.968;2023-04-08T04:36:39;5.90;99.90
6822;DHT22;3449;48.728;8.968;2023-04-08T04:39:06;5.90;99.90
6822;DHT22;3449;48.728;8.968;2023-04-08T04:41:33;5.90;99.90
6822;DHT22;3449;48.728;8.968;2023-04-08T04:44:05;5.90;99.90
6822;DHT22;3449;48.728;8.968;2023-04-08T04:46:32;5.90;99.90
6822;DHT22;3449;48.728;8.968;2023-04-08T04:48:58;5.90;99.90
6822;DHT22;3449;48.728;8.968;2023-04-08T04:51:27;5.90;99.90
6822;DHT22;3449;48.728;8.968;2023-04-08T04:53:53;5.80;99.90
6822;DHT22;3449;48.728;8.968;2023-04-08T04:56:20;5.80;99.90
6822;DHT22;3449;48.728;8.968;2023-04-08T04:58:47;5.80;99.90
6822;DHT22;3449;48.728;8.968;2023-04-08T05:01:14;5.80;99.90
6822;DHT22;3449;48.728;8.968;2023-04-08T05:03:41;5.80;99.90
6822;DHT22;3449;48.728;8.968;2023-04-08T05:06:08;5.90;99.90
6822;DHT22;3449;48.728;8.968;2023-04-08T05:08:37;5.80;99.90
6822;DHT22;3449;48.728;8.968;2023-04-08T05:11:08;5.80;99.90
6822;DHT22;3449;48.728;8.968;2023-04-08T05:13:35;5.80;99.90
6822;DHT22;3449;48.728;8.968;2023-04-08T05:16:02;5.80;99.90
6822;DHT22;3449;48.728;8.968;2023-04-08T05:18:29;5.80;99.90
6822;DHT22;3449;48.728;8.968;2023-04-08T05:20:56;5.90;99.90
6822;DHT22;3449;48.728;8.968;2023-04-08T05:23:22;5.90;99.90
6822;DHT22;3449;48.728;8.968;2023-04-08T05:25:51;5.90;99.90
6822;DHT22;3449;48.728;8.968;2023-04-08T05:28:17;5.90;99.90
6822;DHT22;3449;48.728;8.968;2023-04-08T05:30:48;5.90;99.90
6822;DHT22;3449;48.728;8.968;2023-04-08T05:33:15;6.00;99.90
6822;DHT22;3449;48.728;8.968;2023-04-08T05:35:42;6.00;99.90
6822;DHT22;3449;48.728;8.968;2023-04-08T05:38:09;6.00;99.90
6822;DHT22;3449;48.728;8.968;2023-04-08T05:40:36;6.00;99.90
6822;DHT22;3449;48.728;8.968;2023-04-08T05:43:04;6.10;99.90
6822;DHT22;3449;48.728;8.968;2023-04-08T05:45:31;6.10;99.90
6822;DHT22;3449;48.728;8.968;2023-04-08T05:47:58;6.20;99.90
6822;DHT22;3449;48.728;8.968;2023-04-08T05:50:25;6.20;99.90
6822;DHT22;3449;48.728;8.968;2023-04-08T05:52:52;6.20;99.90
6822;DHT22;3449;48.728;8.968;2023-04-08T05:55:19;6.20;99.90
6822;DHT22;3449;48.728;8.968;2023-04-08T05:57:45;6.30;99.90
6822;DHT22;3449;48.728;8.968;2023-04-08T06:00:14;6.30;99.90
6822;DHT22;3449;48.728;8.968;2023-04-08T06:02:42;6.20;99.90
6822;DHT22;3449;48.728;8.968;2023-04-08T06:05:09;6.20;99.90
6822;DHT22;3449;48.728;8.968;2023-04-08T06:07:36;6.20;99.90
6822;DHT22;3449;48.728;8.968;2023-04-08T06:10:03;6.20;99.90
6822;DHT22;3449;48.728;8.968;2023-04-08T06:12:34;6.20;99.90
6822;DHT22;3449;48.728;8.968;2023-04-08T06:15:01;6.20;99.90
6822;DHT22;3449;48.728;8.968;2023-04-08T06:17:30;6.20;99.90
6822;DHT22;3449;48.728;8.968;2023-04-08T06:19:57;6.30;99.90
6822;DHT22;3449;48.728;8.968;2023-04-08T06:22:24;6.30;99.90
6822;DHT22;3449;48.728;8.968;2023-04-08T06:24:51;6.30;99.90
6822;DHT22;3449;48.728;8.968;2023-04-08T06:27:17;6.30;99.90
6822;DHT22;3449;48.728;8.968;2023-04-08T06:29:44;6.40;99.90
6822;DHT22;3449;48.728;8.968;2023-04-08T06:32:11;6.40;99.90
6822;DHT22;3449;48.728;8.968;2023-04-08T06:34:40;6.50;99.90
6822;DHT22;3449;48.728;8.968;2023-04-08T06:37:07;6.50;99.90
6822;DHT22;3449;48.728;8.968;2023-04-08T06:39:33;6.50;99.90
6822;DHT22;3449;48.728;8.968;2023-04-08T06:42:00;6.50;99.90
6822;DHT22;3449;48.728;8.968;2023-04-08T06:44:27;6.50;99.90
6822;DHT22;3449;48.728;8.968;2023-04-08T06:46:54;6.60;99.90
6822;DHT22;3449;48.728;8.968;2023-04-08T06:49:21;6.60;99.90
6822;DHT22;3449;48.728;8.968;2023-04-08T06:51:49;6.60;99.90
6822;DHT22;3449;48.728;8.968;2023-04-08T06:54:16;6.60;99.90
6822;DHT22;3449;48.728;8.968;2023-04-08T06:56:43;6.80;99.90
6822;DHT22;3449;48.728;8.968;2023-04-08T06:59:10;6.80;99.90
6822;DHT22;3449;48.728;8.968;2023-04-08T07:01:37;6.90;99.90
6822;DHT22;3449;48.728;8.968;2023-04-08T07:04:04;6.90;99.90
6822;DHT22;3449;48.728;8.968;2023-04-08T07:06:31;6.90;99.90
6822;DHT22;3449;48.728;8.968;2023-04-08T07:08:59;7.00;99.90
6822;DHT22;3449;48.728;8.968;2023-04-08T07:11:26;6.90;99.90
6822;DHT22;3449;48.728;8.968;2023-04-08T07:13:53;7.00;99.90
6822;DHT22;3449;48.728;8.968;2023-04-08T07:16:19;6.90;99.90
6822;DHT22;3449;48.728;8.968;2023-04-08T07:18:46;6.90;99.90
6822;DHT22;3449;48.728;8.968;2023-04-08T07:21:13;7.00;99.90
6822;DHT22;3449;48.728;8.968;2023-04-08T07:23:40;7.10;99.90
6822;DHT22;3449;48.728;8.968;2023-04-08T07:26:08;7.10;99.90
6822;DHT22;3449;48.728;8.968;2023-04-08T07:28:35;7.10;99.90
6822;DHT22;3449;48.728;8.968;2023-04-08T07:31:09;7.10;99.90
6822;DHT22;3449;48.728;8.968;2023-04-08T07:33:37;7.10;99.90
6822;DHT22;3449;48.728;8.968;2023-04-08T07:36:04;7.10;99.90
6822;DHT22;3449;48.728;8.968;2023-04-08T07:38:31;7.20;99.90
6822;DHT22;3449;48.728;8.968;2023-04-08T07:40:58;7.30;99.90
6822;DHT22;3449;48.728;8.968;2023-04-08T07:43:26;7.40;99.90
6822;DHT22;3449;48.728;8.968;2023-04-08T07:45:53;7.40;99.90
6822;DHT22;3449;48.728;8.968;2023-04-08T07:48:20;7.50;99.90
6822;DHT22;3449;48.728;8.968;2023-04-08T07:50:47;7.50;99.90
6822;DHT22;3449;48.728;8.968;2023-04-08T07:53:14;7.50;99.90
6822;DHT22;3449;48.728;8.968;2023-04-08T07:55:41;7.60;99.90
6822;DHT22;3449;48.728;8.968;2023-04-08T07:58:08;7.80;99.90
6822;DHT22;3449;48.728;8.968;2023-04-08T08:00:36;7.80;99.90
6822;DHT22;3449;48.728;8.968;2023-04-08T08:03:03;7.70;99.90
6822;DHT22;3449;48.728;8.968;2023-04-08T08:05:30;7.70;99.90
6822;DHT22;3449;48.728;8.968;2023-04-08T08:07:56;7.80;99.90
6822;DHT22;3449;48.728;8.968;2023-04-08T08:10:23;7.90;99.90
6822;DHT22;3449;48.728;8.968;2023-04-08T08:12:52;8.00;99.90
6822;DHT22;3449;48.728;8.968;2023-04-08T08:15:18;8.10;99.90
6822;DHT22;3449;48.728;8.968;2023-04-08T08:17:47;8.20;99.90
6822;DHT22;3449;48.728;8.968;2023-04-08T08:20:14;8.40;99.90
6822;DHT22;3449;48.728;8.968;2023-04-08T08:22:41;8.50;99.90
6822;DHT22;3449;48.728;8.968;2023-04-08T08:25:10;8.50;99.90
6822;DHT22;3449;48.728;8.968;2023-04-08T08:27:37;8.50;99.90
6822;DHT22;3449;48.728;8.968;2023-04-08T08:30:06;8.60;99.90
6822;DHT22;3449;48.728;8.968;2023-04-08T08:32:33;8.60;99.90
6822;DHT22;3449;48.728;8.968;2023-04-08T08:35:02;8.60;99.90
6822;DHT22;3449;48.728;8.968;2023-04-08T08:37:29;8.70;99.90
6822;DHT22;3449;48.728;8.968;2023-04-08T08:39:56;8.70;99.90
6822;DHT22;3449;48.728;8.968;2023-04-08T08:42:24;8.80;99.90
6822;DHT22;3449;48.728;8.968;2023-04-08T08:44:51;8.80;99.90
6822;DHT22;3449;48.728;8.968;2023-04-08T08:47:18;8.70;99.90
6822;DHT22;3449;48.728;8.968;2023-04-08T08:49:47;8.70;99.90
6822;DHT22;3449;48.728;8.968;2023-04-08T08:52:16;8.80;99.90
6822;DHT22;3449;48.728;8.968;2023-04-08T08:54:43;8.90;99.90
6822;DHT22;3449;48.728;8.968;2023-04-08T08:57:17;9.00;99.90
6822;DHT22;3449;48.728;8.968;2023-04-08T08:59:45;9.00;99.90
6822;DHT22;3449;48.728;8.968;2023-04-08T09:02:26;9.20;99.90
6822;DHT22;3449;48.728;8.968;2023-04-08T09:04:57;9.10;99.90
6822;DHT22;3449;48.728;8.968;2023-04-08T09:07:27;9.30;99.90
6822;DHT22;3449;48.728;8.968;2023-04-08T09:09:57;9.40;99.90
6822;DHT22;3449;48.728;8.968;2023-04-08T09:12:24;9.60;99.90
6822;DHT22;3449;48.728;8.968;2023-04-08T09:15:02;9.90;99.90
6822;DHT22;3449;48.728;8.968;2023-04-08T09:17:34;10.00;99.90
6822;DHT22;3449;48.728;8.968;2023-04-08T09:20:06;10.10;99.90
6822;DHT22;3449;48.728;8.968;2023-04-08T09:22:55;10.20;99.90
6822;DHT22;3449;48.728;8.968;2023-04-08T09:25:23;10.30;99.90
6822;DHT22;3449;48.728;8.968;2023-04-08T09:27:51;10.60;99.90
6822;DHT22;3449;48.728;8.968;2023-04-08T09:30:20;10.70;99.90
6822;DHT22;3449;48.728;8.968;2023-04-08T09:32:48;10.80;99.90
6822;DHT22;3449;48.728;8.968;2023-04-08T09:35:16;11.00;99.90
6822;DHT22;3449;48.728;8.968;2023-04-08T09:37:43;11.10;99.90
6822;DHT22;3449;48.728;8.968;2023-04-08T09:40:12;11.20;99.90
6822;DHT22;3449;48.728;8.968;2023-04-08T09:42:44;11.10;99.90
6822;DHT22;3449;48.728;8.968;2023-04-08T09:45:14;11.20;99.90
6822;DHT22;3449;48.728;8.968;2023-04-08T09:47:55;11.40;99.90
6822;DHT22;3449;48.728;8.968;2023-04-08T09:50:45;11.40;99.90
6822;DHT22;3449;48.728;8.968;2023-04-08T09:53:37;11.50;99.90
6822;DHT22;3449;48.728;8.968;2023-04-08T09:56:12;11.30;99.90
6822;DHT22;3449;48.728;8.968;2023-04-08T10:02:44;11.00;99.90
6822;DHT22;3449;48.728;8.968;2023-04-08T10:05:43;11.10;99.90
6822;DHT22;3449;48.728;8.968;2023-04-08T10:08:12;11.00;99.90
6822;DHT22;3449;48.728;8.968;2023-04-08T10:10:57;11.10;99.90
6822;DHT22;3449;48.728;8.968;2023-04-08T10:13:41;11.20;99.90
6822;DHT22;3449;48.728;8.968;2023-04-08T10:16:20;11.30;99.90
6822;DHT22;3449;48.728;8.968;2023-04-08T10:18:49;11.40;99.90
6822;DHT22;3449;48.728;8.968;2023-04-08T10:21:33;11.60;99.90
6822;DHT22;3449;48.728;8.968;2023-04-08T10:24:01;11.60;99.90
6822;DHT22;3449;48.728;8.968;2023-04-08T10:26:41;11.60;99.90
6822;DHT22;3449;48.728;8.968;2023-04-08T10:29:33;11.60;99.90
6822;DHT22;3449;48.728;8.968;2023-04-08T10:32:01;11.50;99.90
6822;DHT22;3449;48.728;8.968;2023-04-08T10:34:27;11.40;99.90
6822;DHT22;3449;48.728;8.968;2023-04-08T10:36:56;11.20;99.90
6822;DHT22;3449;48.728;8.968;2023-04-08T10:39:26;11.60;99.90
6822;DHT22;3449;48.728;8.968;2023-04-08T10:41:53;11.60;99.90
6822;DHT22;3449;48.728;8.968;2023-04-08T10:44:21;11.80;99.90
6822;DHT22;3449;48.728;8.968;2023-04-08T10:46:51;12.30;99.90
6822;DHT22;3449;48.728;8.968;2023-04-08T10:49:18;12.40;99.90
6822;DHT22;3449;48.728;8.968;2023-04-08T10:51:46;12.60;99.90
6822;DHT22;3449;48.728;8.968;2023-04-08T10:54:15;12.40;99.90
6822;DHT22;3449;48.728;8.968;2023-04-08T10:56:44;12.20;99.90
6822;DHT22;3449;48.728;8.968;2023-04-08T10:59:12;12.00;99.90
6822;DHT22;3449;48.728;8.968;2023-04-08T11:01:42;11.80;99.90
6822;DHT22;3449;48.728;8.968;2023-04-08T11:04:15;11.50;99.90
6822;DHT22;3449;48.728;8.968;2023-04-08T11:06:45;11.30;99.90
6822;DHT22;3449;48.728;8.968;2023-04-08T11:09:13;11.20;99.90
6822;DHT22;3449;48.728;8.968;2023-04-08T11:11:42;11.00;99.90
6822;DHT22;3449;48.728;8.968;2023-04-08T11:14:09;10.90;99.90
6822;DHT22;3449;48.728;8.968;2023-04-08T11:16:36;10.70;99.90
6822;DHT22;3449;48.728;8.968;2023-04-08T11:19:04;10.70;99.90
6822;DHT22;3449;48.728;8.968;2023-04-08T11:21:34;10.60;99.90
6822;DHT22;3449;48.728;8.968;2023-04-08T11:24:06;10.60;99.90
6822;DHT22;3449;48.728;8.968;2023-04-08T11:26:35;10.50;99.90
6822;DHT22;3449;48.728;8.968;2023-04-08T11:29:02;10.50;99.90
6822;DHT22;3449;48.728;8.968;2023-04-08T11:31:31;10.50;99.90
6822;DHT22;3449;48.728;8.968;2023-04-08T11:33:59;10.40;99.90
6822;DHT22;3449;48.728;8.968;2023-04-08T11:36:28;10.40;99.90
6822;DHT22;3449;48.728;8.968;2023-04-08T11:38:56;10.40;99.90
6822;DHT22;3449;48.728;8.968;2023-04-08T11:41:23;10.40;99.90
6822;DHT22;3449;48.728;8.968;2023-04-08T11:43:55;10.30;99.90
6822;DHT22;3449;48.728;8.968;2023-04-08T11:46:22;10.30;99.90
6822;DHT22;3449;48.728;8.968;2023-04-08T11:49:03;10.30;99.90
6822;DHT22;3449;48.728;8.968;2023-04-08T11:51:31;10.30;99.90
6822;DHT22;3449;48.728;8.968;2023-04-08T11:54:03;10.30;99.90
6822;DHT22;3449;48.728;8.968;2023-04-08T11:56:35;10.30;99.90
6822;DHT22;3449;48.728;8.968;2023-04-08T11:59:10;10.40;99.90
6822;DHT22;3449;48.728;8.968;2023-04-08T12:01:37;10.40;99.90
6822;DHT22;3449;48.728;8.968;2023-04-08T12:04:03;10.40;99.90
6822;DHT22;3449;48.728;8.968;2023-04-08T12:06:31;10.40;99.90
6822;DHT22;3449;48.728;8.968;2023-04-08T12:08:59;10.40;99.90
6822;DHT22;3449;48.728;8.968;2023-04-08T12:11:26;10.40;99.90
6822;DHT22;3449;48.728;8.968;2023-04-08T12:13:53;10.30;99.90
6822;DHT22;3449;48.728;8.968;2023-04-08T12:16:21;10.20;99.90
6822;DHT22;3449;48.728;8.968;2023-04-08T12:18:48;10.20;99.90
6822;DHT22;3449;48.728;8.968;2023-04-08T12:21:15;10.20;99.90
6822;DHT22;3449;48.728;8.968;2023-04-08T12:23:42;10.10;99.90
6822;DHT22;3449;48.728;8.968;2023-04-08T12:26:10;10.20;99.90
6822;DHT22;3449;48.728;8.968;2023-04-08T12:28:37;10.10;99.90
6822;DHT22;3449;48.728;8.968;2023-04-08T12:31:04;10.10;99.90
6822;DHT22;3449;48.728;8.968;2023-04-08T12:33:32;10.20;99.90
6822;DHT22;3449;48.728;8.968;2023-04-08T12:35:58;10.10;99.90
6822;DHT22;3449;48.728;8.968;2023-04-08T12:38:26;10.10;99.90
6822;DHT22;3449;48.728;8.968;2023-04-08T12:40:53;10.10;99.90
6822;DHT22;3449;48.728;8.968;2023-04-08T12:43:21;10.00;99.90
6822;DHT22;3449;48.728;8.968;2023-04-08T12:45:49;10.00;99.90
6822;DHT22;3449;48.728;8.968;2023-04-08T12:48:16;10.00;99.90
6822;DHT22;3449;48.728;8.968;2023-04-08T12:50:43;10.00;99.90
6822;DHT22;3449;48.728;8.968;2023-04-08T12:53:10;10.00;99.90
6822;DHT22;3449;48.728;8.968;2023-04-08T12:55:37;9.90;99.90
6822;DHT22;3449;48.728;8.968;2023-04-08T12:58:04;9.90;99.90
6822;DHT22;3449;48.728;8.968;2023-04-08T13:00:32;9.80;99.90
6822;DHT22;3449;48.728;8.968;2023-04-08T13:03:02;9.70;99.90
6822;DHT22;3449;48.728;8.968;2023-04-08T13:05:29;9.70;99.90
6822;DHT22;3449;48.728;8.968;2023-04-08T13:07:56;9.80;99.90
6822;DHT22;3449;48.728;8.968;2023-04-08T13:10:22;9.80;99.90
6822;DHT22;3449;48.728;8.968;2023-04-08T13:12:49;9.80;99.90
6822;DHT22;3449;48.728;8.968;2023-04-08T13:15:16;9.90;99.90
6822;DHT22;3449;48.728;8.968;2023-04-08T13:17:44;9.90;99.90
6822;DHT22;3449;48.728;8.968;2023-04-08T13:20:11;10.10;99.90
6822;DHT22;3449;48.728;8.968;2023-04-08T13:22:38;10.30;99.90
6822;DHT22;3449;48.728;8.968;2023-04-08T13:25:06;10.40;99.90
6822;DHT22;3449;48.728;8.968;2023-04-08T13:27:33;10.30;99.90
6822;DHT22;3449;48.728;8.968;2023-04-08T13:30:00;10.20;99.90
6822;DHT22;3449;48.728;8.968;2023-04-08T13:32:27;10.30;99.90
6822;DHT22;3449;48.728;8.968;2023-04-08T13:34:55;10.30;99.90
6822;DHT22;3449;48.728;8.968;2023-04-08T13:37:22;10.30;99.90
6822;DHT22;3449;48.728;8.968;2023-04-08T13:39:49;10.30;99.90
6822;DHT22;3449;48.728;8.968;2023-04-08T13:42:16;10.40;99.90
6822;DHT22;3449;48.728;8.968;2023-04-08T13:44:43;10.40;99.90
6822;DHT22;3449;48.728;8.968;2023-04-08T13:47:10;10.40;99.90
6822;DHT22;3449;48.728;8.968;2023-04-08T13:49:37;10.40;99.90
6822;DHT22;3449;48.728;8.968;2023-04-08T13:52:05;10.20;99.90
6822;DHT22;3449;48.728;8.968;2023-04-08T13:54:32;10.10;99.90
6822;DHT22;3449;48.728;8.968;2023-04-08T13:56:59;9.90;99.90
6822;DHT22;3449;48.728;8.968;2023-04-08T13:59:26;9.90;99.90
6822;DHT22;3449;48.728;8.968;2023-04-08T14:01:53;10.00;99.90
6822;DHT22;3449;48.728;8.968;2023-04-08T14:04:20;10.00;99.90
6822;DHT22;3449;48.728;8.968;2023-04-08T14:06:48;10.10;99.90
6822;DHT22;3449;48.728;8.968;2023-04-08T14:09:17;10.10;99.90
6822;DHT22;3449;48.728;8.968;2023-04-08T14:11:44;10.10;99.90
6822;DHT22;3449;48.728;8.968;2023-04-08T14:14:11;10.10;99.90
6822;DHT22;3449;48.728;8.968;2023-04-08T14:16:38;10.10;99.90
6822;DHT22;3449;48.728;8.968;2023-04-08T14:19:06;10.30;99.90
6822;DHT22;3449;48.728;8.968;2023-04-08T14:21:33;10.30;99.90
6822;DHT22;3449;48.728;8.968;2023-04-08T14:24:02;10.30;99.90
6822;DHT22;3449;48.728;8.968;2023-04-08T14:26:31;10.40;99.90
6822;DHT22;3449;48.728;8.968;2023-04-08T14:29:01;10.40;99.90
6822;DHT22;3449;48.728;8.968;2023-04-08T14:31:29;10.40;99.90
6822;DHT22;3449;48.728;8.968;2023-04-08T14:33:56;10.30;99.90
6822;DHT22;3449;48.728;8.968;2023-04-08T14:36:23;10.50;99.90
6822;DHT22;3449;48.728;8.968;2023-04-08T14:38:50;10.70;99.90
6822;DHT22;3449;48.728;8.968;2023-04-08T14:41:17;10.70;99.90
6822;DHT22;3449;48.728;8.968;2023-04-08T14:43:47;10.60;99.90
6822;DHT22;3449;48.728;8.968;2023-04-08T14:46:14;10.60;99.90
6822;DHT22;3449;48.728;8.968;2023-04-08T14:48:41;10.60;99.90
6822;DHT22;3449;48.728;8.968;2023-04-08T14:51:08;10.70;99.90
6822;DHT22;3449;48.728;8.968;2023-04-08T14:53:35;10.90;99.90
6822;DHT22;3449;48.728;8.968;2023-04-08T14:56:02;11.00;99.90
6822;DHT22;3449;48.728;8.968;2023-04-08T14:58:29;11.00;99.90
6822;DHT22;3449;48.728;8.968;2023-04-08T15:00:57;11.00;99.90
6822;DHT22;3449;48.728;8.968;2023-04-08T15:03:24;11.00;99.90
6822;DHT22;3449;48.728;8.968;2023-04-08T15:05:51;11.10;99.90
6822;DHT22;3449;48.728;8.968;2023-04-08T15:08:20;11.20;99.90
6822;DHT22;3449;48.728;8.968;2023-04-08T15:10:47;11.10;99.90
6822;DHT22;3449;48.728;8.968;2023-04-08T15:13:14;10.90;99.90
6822;DHT22;3449;48.728;8.968;2023-04-08T15:15:41;10.90;99.90
6822;DHT22;3449;48.728;8.968;2023-04-08T15:18:09;10.80;99.90
6822;DHT22;3449;48.728;8.968;2023-04-08T15:20:36;11.00;99.90
6822;DHT22;3449;48.728;8.968;2023-04-08T15:23:03;11.10;99.90
6822;DHT22;3449;48.728;8.968;2023-04-08T15:25:30;11.00;99.90
6822;DHT22;3449;48.728;8.968;2023-04-08T15:27:58;10.80;99.90
6822;DHT22;3449;48.728;8.968;2023-04-08T15:30:27;10.60;99.90
6822;DHT22;3449;48.728;8.968;2023-04-08T15:33:00;10.60;99.90
6822;DHT22;3449;48.728;8.968;2023-04-08T15:35:29;10.50;99.90
6822;DHT22;3449;48.728;8.968;2023-04-08T15:37:56;10.30;99.90
6822;DHT22;3449;48.728;8.968;2023-04-08T15:40:23;10.30;99.90
6822;DHT22;3449;48.728;8.968;2023-04-08T15:42:50;10.10;99.90
6822;DHT22;3449;48.728;8.968;2023-04-08T15:45:17;10.00;99.90
6822;DHT22;3449;48.728;8.968;2023-04-08T15:47:44;9.90;99.90
6822;DHT22;3449;48.728;8.968;2023-04-08T15:50:11;9.80;99.90
6822;DHT22;3449;48.728;8.968;2023-04-08T15:52:40;9.70;99.90
6822;DHT22;3449;48.728;8.968;2023-04-08T15:55:07;9.80;99.90
6822;DHT22;3449;48.728;8.968;2023-04-08T15:57:34;9.80;99.90
6822;DHT22;3449;48.728;8.968;2023-04-08T16:00:05;9.80;99.90
6822;DHT22;3449;48.728;8.968;2023-04-08T16:02:31;9.90;99.90
6822;DHT22;3449;48.728;8.968;2023-04-08T16:04:58;9.90;99.90
6822;DHT22;3449;48.728;8.968;2023-04-08T16:07:25;9.90;99.90
6822;DHT22;3449;48.728;8.968;2023-04-08T16:09:53;9.80;99.90
6822;DHT22;3449;48.728;8.968;2023-04-08T16:12:20;9.80;99.90
6822;DHT22;3449;48.728;8.968;2023-04-08T16:14:49;9.80;99.90
6822;DHT22;3449;48.728;8.968;2023-04-08T16:17:16;9.80;99.90
6822;DHT22;3449;48.728;8.968;2023-04-08T16:19:43;9.80;99.90
6822;DHT22;3449;48.728;8.968;2023-04-08T16:22:10;9.80;99.90
6822;DHT22;3449;48.728;8.968;2023-04-08T16:24:37;9.90;99.90